»·PEaware :: N361AS KSMX-KBFL

N361AS :: KSMX-KBFL

FLIGHT INFORMATION

Flight Status: Arrived
Operator: Privately registered:
United States
More flights under this callsign
Pilot: Michael N. (17635)
Aircraft: BEECH AIRCRAFT DEBONAIR BONANZA
(BE33)
More flights by this aircraft type
Origin: KSMX Santa Maria Pub/Capt Hancock
United States
Destination: KBFL Meadows
United States
More flights between these airports :: More routes between these airports
Route: +DCT
File this flight plan on PilotEdge
Remarks: CAT5
Altitude:
(Current/Filed)
4,500ft
Speed:
(Current/Filed)
170kts
Departed: 07-Jan-18 10:34 PM
Arrived: 07-Jan-18 11:10 PM
Distance/Time
Traveled:
76nm/0:35
Distance/Time
To Go:
Arrived

Flight Plot

Page will automatically refresh every two minutes.


Map Options




Map Legend


Flown Route
Filed Route
Departure Airport
Arrival Airport
Navaid (VOR, NDB)
Fix

Horizontal Profiles

Position Reports

Time Latitude Longitude Heading Altitude Ground
Speed
07-Jan-18 22:30 34.899355 -120.449805 47 263ft 0kts
07-Jan-18 22:31 34.899355 -120.449805 47 263ft 0kts
07-Jan-18 22:32 34.899355 -120.449805 47 263ft 0kts
07-Jan-18 22:33 34.899355 -120.449805 47 263ft 0kts
07-Jan-18 22:34 34.899314 -120.449933 213 263ft 5kts
07-Jan-18 22:35 34.897547 -120.449476 145 263ft 7kts
07-Jan-18 22:36 34.894085 -120.445376 151 263ft 8kts
07-Jan-18 22:37 34.893119 -120.445372 225 263ft 0kts
07-Jan-18 22:38 34.893119 -120.445372 225 263ft 0kts
07-Jan-18 22:39 34.893747 -120.446968 313 263ft 39kts
07-Jan-18 22:40 34.910434 -120.466105 307 868ft 95kts
07-Jan-18 22:41 34.896811 -120.468136 91 1774ft 104kts
07-Jan-18 22:42 34.896874 -120.435039 87 2659ft 96kts
07-Jan-18 22:43 34.897629 -120.402396 87 3804ft 97kts
07-Jan-18 22:44 34.898672 -120.368623 87 4699ft 100kts
07-Jan-18 22:45 34.899848 -120.333592 88 5356ft 108kts
07-Jan-18 22:46 34.901291 -120.291842 88 5514ft 139kts
07-Jan-18 22:47 34.902933 -120.242225 87 5504ft 149kts
07-Jan-18 22:48 34.904535 -120.191507 88 5504ft 149kts
07-Jan-18 22:49 34.906103 -120.140722 88 5501ft 150kts
07-Jan-18 22:50 34.907616 -120.088747 88 5503ft 157kts
07-Jan-18 22:51 34.909079 -120.036299 88 5501ft 152kts
07-Jan-18 22:52 34.927337 -119.994401 30 5512ft 153kts
07-Jan-18 22:53 34.964094 -119.967880 30 5505ft 153kts
07-Jan-18 22:54 34.999926 -119.941103 34 5505ft 150kts
07-Jan-18 22:55 35.034263 -119.912434 34 5508ft 148kts
07-Jan-18 22:56 35.068397 -119.883952 34 5509ft 149kts
07-Jan-18 22:57 35.103023 -119.854870 34 5510ft 153kts
07-Jan-18 22:58 35.138005 -119.825463 34 5506ft 150kts
07-Jan-18 22:59 35.163430 -119.787806 74 5513ft 148kts
07-Jan-18 23:00 35.173742 -119.738267 80 5522ft 153kts
07-Jan-18 23:01 35.181564 -119.686114 80 5533ft 162kts
07-Jan-18 23:02 35.189451 -119.632940 80 5534ft 159kts
07-Jan-18 23:03 35.206737 -119.584580 60 5537ft 156kts
07-Jan-18 23:04 35.228543 -119.539867 60 5538ft 151kts
07-Jan-18 23:05 35.250303 -119.495112 60 5548ft 156kts
07-Jan-18 23:06 35.273288 -119.447615 60 5227ft 171kts
07-Jan-18 23:07 35.297656 -119.397095 60 4723ft 172kts
07-Jan-18 23:08 35.318263 -119.345858 59 4228ft 169kts
07-Jan-18 23:09 35.351002 -119.306393 43 3720ft 162kts
07-Jan-18 23:10 35.384268 -119.268973 43 3219ft 161kts
07-Jan-18 23:11 35.416537 -119.232648 43 2719ft 155kts
07-Jan-18 23:12 35.435015 -119.186123 73 2245ft 156kts
07-Jan-18 23:13 35.446141 -119.136605 98 1754ft 148kts
07-Jan-18 23:14 35.450148 -119.093043 49 1188ft 106kts
07-Jan-18 23:15 35.445769 -119.070534 138 512ft 73kts
07-Jan-18 23:16 35.439390 -119.062762 138 509ft 22kts
07-Jan-18 23:17 35.438615 -119.060404 82 509ft 6kts
07-Jan-18 23:18 35.435809 -119.056111 136 509ft 25kts
07-Jan-18 23:19 35.430160 -119.049352 132 509ft 22kts
07-Jan-18 23:20 35.431548 -119.047262 45 509ft 0kts
07-Jan-18 23:21 35.431548 -119.047262 45 509ft 0kts
07-Jan-18 23:22 35.431548 -119.047262 45 509ft 0kts
07-Jan-18 23:23 35.431548 -119.047262 45 509ft 0kts
07-Jan-18 23:24 35.431548 -119.047262 45 509ft 0kts
07-Jan-18 23:25 35.431548 -119.047262 45 509ft 0kts
07-Jan-18 23:26 35.431548 -119.047262 45 509ft 0kts
07-Jan-18 23:27 35.431548 -119.047262 45 509ft 0kts
07-Jan-18 23:28 35.431548 -119.047262 45 509ft 0kts
07-Jan-18 23:29 35.431548 -119.047262 45 509ft 0kts
07-Jan-18 23:30 35.431548 -119.047262 45 509ft 0kts

Navigation Log

Ident Type
1. KSMX Airport
2. KBFL Airport